Main page
METAR-TAF:

Airports :

Longyearbyen, Longyear,

Svalbard Airport

latitude: Norway, longitude: 78-15N, elevation: 015-28E m

Current weather observation

The report was made 15 minutes ago, at 01:50 UTC
Wind 4 kt from the West, varying between Southwest and Northwest
Temperature 11°C
Humidity 58%
Pressure 1012 hPa
Visibility 10 km or more
no clouds below 1500 m and no cumulonimbus

METAR: ENSB 020150Z 27004KT 230V320 CAVOK 11/03 Q1012 RMK WIND 1400FT 12010KT

Time: 02:05 (02:05 UTC)

Forecast

Forecast valid from 02 at 00 UTC to 02 at 24 UTC
Wind 5 kt from the West
Visibility 10 km or more
Few clouds at a height of 2000 ft
Scattered clouds at a height of 3500 ft
Becoming
from 02 at 18 UTC to 02 at 21 UTC
Wind 10 kt from the East/Southeast

TAF: ENSB 0200/0224 26005KT 9999 FEW020 SCT035 BECMG 0218/0221 12010KT

METAR-TAF

Weather observations and forecasts of more than 4000 airports (METAR and TAF reports).

The available stations are represented by yellow and red dots on the map.

Hover mouse over dot to see the name of the station.

Then click to see weather observations and forecasts.

To change the map : click on the green buttons with a black cross to zoom in, on the green button with a dash to zoom out, or on the green arrows for adjacent maps.


METAR-TAF: